Terminal Aerodrome Forecast
Issued by NWS Louisville, KY

Home | Current Version | Previous Version | Text Only | Print | Product List | Glossary On
Versions: 1 2 3 4 5 6 7 8 9 10 11 12 13 14 15 16
000
FTUS43 KLMK 262320
TAFSDF
TAF
KSDF 262320Z 2700/2806 16008KT P6SM BKN100
     FM271000 14005KT P6SM VCSH OVC035
     FM271400 18007KT P6SM -SHRA BKN025
     FM271900 19008KT P6SM BKN040=

USA.gov is the U.S. government's official web portal to all federal, state and local government web resources and services.